sensor_id;sensor_type;location;lat;lon;timestamp;pressure;altitude;pressure_sealevel;temperature;humidity
57990;BME280;58373;51.824;5.564;2022-07-10T00:01:26;102666.00;;;14.07;70.44
57990;BME280;58373;51.824;5.564;2022-07-10T00:03:51;102661.44;;;14.23;70.30
57990;BME280;58373;51.824;5.564;2022-07-10T00:06:17;102677.50;;;14.17;70.54
57990;BME280;58373;51.824;5.564;2022-07-10T00:08:42;102662.69;;;14.18;70.13
57990;BME280;58373;51.824;5.564;2022-07-10T00:11:08;102670.81;;;14.13;70.47
57990;BME280;58373;51.824;5.564;2022-07-10T00:13:34;102701.81;;;14.30;70.59
57990;BME280;58373;51.824;5.564;2022-07-10T00:16:00;102675.19;;;14.25;70.30
57990;BME280;58373;51.824;5.564;2022-07-10T00:18:27;102665.38;;;14.16;70.46
57990;BME280;58373;51.824;5.564;2022-07-10T00:20:53;102652.63;;;13.99;70.87
57990;BME280;58373;51.824;5.564;2022-07-10T00:23:18;102692.41;;;14.15;71.62
57990;BME280;58373;51.824;5.564;2022-07-10T00:25:43;102692.75;;;14.23;70.91
57990;BME280;58373;51.824;5.564;2022-07-10T00:28:09;102678.03;;;14.22;70.89
57990;BME280;58373;51.824;5.564;2022-07-10T00:30:34;102671.63;;;14.01;71.45
57990;BME280;58373;51.824;5.564;2022-07-10T00:33:00;102678.75;;;14.24;71.13
57990;BME280;58373;51.824;5.564;2022-07-10T00:35:25;102659.53;;;14.13;71.04
57990;BME280;58373;51.824;5.564;2022-07-10T00:37:50;102667.88;;;14.05;71.10
57990;BME280;58373;51.824;5.564;2022-07-10T00:40:16;102680.09;;;14.17;70.54
57990;BME280;58373;51.824;5.564;2022-07-10T00:42:41;102664.34;;;14.06;70.47
57990;BME280;58373;51.824;5.564;2022-07-10T00:45:07;102668.38;;;14.10;70.69
57990;BME280;58373;51.824;5.564;2022-07-10T00:47:33;102643.03;;;13.99;70.94
57990;BME280;58373;51.824;5.564;2022-07-10T00:49:58;102652.00;;;14.08;71.09
57990;BME280;58373;51.824;5.564;2022-07-10T00:52:24;102655.16;;;14.13;70.94
57990;BME280;58373;51.824;5.564;2022-07-10T00:54:50;102643.75;;;14.01;71.59
57990;BME280;58373;51.824;5.564;2022-07-10T00:57:17;102655.03;;;14.02;71.30
57990;BME280;58373;51.824;5.564;2022-07-10T00:59:44;102664.41;;;14.04;71.61
57990;BME280;58373;51.824;5.564;2022-07-10T01:02:10;102664.75;;;14.00;71.69
57990;BME280;58373;51.824;5.564;2022-07-10T01:04:36;102664.94;;;13.97;71.90
57990;BME280;58373;51.824;5.564;2022-07-10T01:07:01;102664.13;;;14.09;71.26
57990;BME280;58373;51.824;5.564;2022-07-10T01:09:27;102664.94;;;13.97;71.83
57990;BME280;58373;51.824;5.564;2022-07-10T01:11:55;102647.81;;;13.93;71.90
57990;BME280;58373;51.824;5.564;2022-07-10T01:14:21;102643.44;;;13.93;71.79
57990;BME280;58373;51.824;5.564;2022-07-10T01:16:46;102658.66;;;13.87;72.23
57990;BME280;58373;51.824;5.564;2022-07-10T01:19:12;102644.34;;;13.79;72.94
57990;BME280;58373;51.824;5.564;2022-07-10T01:21:37;102659.94;;;13.94;72.60
57990;BME280;58373;51.824;5.564;2022-07-10T01:24:06;102613.44;;;13.61;73.49
57990;BME280;58373;51.824;5.564;2022-07-10T01:26:32;102633.41;;;13.87;72.85
57990;BME280;58373;51.824;5.564;2022-07-10T01:29:00;102626.94;;;13.80;72.81
57990;BME280;58373;51.824;5.564;2022-07-10T01:31:27;102641.34;;;13.98;72.61
57990;BME280;58373;51.824;5.564;2022-07-10T01:33:53;102632.97;;;13.80;73.13
57990;BME280;58373;51.824;5.564;2022-07-10T01:36:20;102633.22;;;13.90;72.86
57990;BME280;58373;51.824;5.564;2022-07-10T01:38:46;102634.16;;;13.89;73.76
57990;BME280;58373;51.824;5.564;2022-07-10T01:41:11;102622.97;;;13.74;73.37
57990;BME280;58373;51.824;5.564;2022-07-10T01:43:37;102633.41;;;13.87;73.65
57990;BME280;58373;51.824;5.564;2022-07-10T01:46:03;102637.88;;;13.72;74.04
57990;BME280;58373;51.824;5.564;2022-07-10T01:48:30;102633.38;;;13.74;73.72
57990;BME280;58373;51.824;5.564;2022-07-10T01:50:56;102617.91;;;13.59;74.35
57990;BME280;58373;51.824;5.564;2022-07-10T01:53:22;102643.63;;;13.77;73.98
57990;BME280;58373;51.824;5.564;2022-07-10T01:55:47;102636.41;;;13.81;73.73
57990;BME280;58373;51.824;5.564;2022-07-10T01:58:12;102632.13;;;13.67;73.84
57990;BME280;58373;51.824;5.564;2022-07-10T02:00:38;102633.38;;;13.74;73.33
57990;BME280;58373;51.824;5.564;2022-07-10T02:03:03;102631.53;;;13.76;73.45
57990;BME280;58373;51.824;5.564;2022-07-10T02:05:47;102639.63;;;13.59;74.29
57990;BME280;58373;51.824;5.564;2022-07-10T02:08:13;102629.56;;;13.53;74.38
57990;BME280;58373;51.824;5.564;2022-07-10T02:10:38;102616.22;;;13.45;75.10
57990;BME280;58373;51.824;5.564;2022-07-10T02:13:04;102597.69;;;13.49;74.19
57990;BME280;58373;51.824;5.564;2022-07-10T02:15:29;102602.13;;;13.47;75.10
57990;BME280;58373;51.824;5.564;2022-07-10T02:17:55;102625.66;;;13.60;75.07
57990;BME280;58373;51.824;5.564;2022-07-10T02:20:20;102618.25;;;13.54;74.38
57990;BME280;58373;51.824;5.564;2022-07-10T02:22:46;102634.59;;;13.56;74.33
57990;BME280;58373;51.824;5.564;2022-07-10T02:25:11;102622.03;;;13.36;75.20
57990;BME280;58373;51.824;5.564;2022-07-10T02:27:36;102634.91;;;13.51;74.82
57990;BME280;58373;51.824;5.564;2022-07-10T02:30:02;102623.31;;;13.43;75.90
57990;BME280;58373;51.824;5.564;2022-07-10T02:32:27;102608.66;;;13.27;75.30
57990;BME280;58373;51.824;5.564;2022-07-10T02:34:53;102605.78;;;13.45;74.25
57990;BME280;58373;51.824;5.564;2022-07-10T02:37:18;102590.31;;;13.29;75.26
57990;BME280;58373;51.824;5.564;2022-07-10T02:39:44;102611.94;;;13.44;75.92
57990;BME280;58373;51.824;5.564;2022-07-10T02:42:09;102580.00;;;13.27;75.02
57990;BME280;58373;51.824;5.564;2022-07-10T02:44:35;102613.44;;;13.61;74.84
57990;BME280;58373;51.824;5.564;2022-07-10T02:47:00;102574.91;;;13.39;74.86
57990;BME280;58373;51.824;5.564;2022-07-10T02:49:25;102558.16;;;13.16;75.07
57990;BME280;58373;51.824;5.564;2022-07-10T02:51:51;102602.06;;;13.49;75.55
57990;BME280;58373;51.824;5.564;2022-07-10T02:54:16;102589.06;;;13.35;75.95
57990;BME280;58373;51.824;5.564;2022-07-10T02:56:41;102590.69;;;13.50;75.57
57990;BME280;58373;51.824;5.564;2022-07-10T02:59:07;102589.06;;;13.35;75.45
57990;BME280;58373;51.824;5.564;2022-07-10T03:01:32;102601.84;;;13.52;75.37
57990;BME280;58373;51.824;5.564;2022-07-10T03:03:58;102588.28;;;13.47;76.08
57990;BME280;58373;51.824;5.564;2022-07-10T03:06:23;102571.38;;;13.40;75.96
57990;BME280;58373;51.824;5.564;2022-07-10T03:08:49;102561.03;;;13.11;75.99
57990;BME280;58373;51.824;5.564;2022-07-10T03:11:14;102561.69;;;13.15;76.18
57990;BME280;58373;51.824;5.564;2022-07-10T03:13:40;102596.16;;;13.33;76.26
57990;BME280;58373;51.824;5.564;2022-07-10T03:16:05;102606.88;;;13.55;76.00
57990;BME280;58373;51.824;5.564;2022-07-10T03:18:31;102594.44;;;13.46;76.32
57990;BME280;58373;51.824;5.564;2022-07-10T03:20:56;102611.19;;;13.42;76.30
57990;BME280;58373;51.824;5.564;2022-07-10T03:23:22;102595.38;;;13.45;76.83
57990;BME280;58373;51.824;5.564;2022-07-10T03:25:47;102588.00;;;13.24;77.15
57990;BME280;58373;51.824;5.564;2022-07-10T03:28:13;102592.84;;;13.31;77.82
57990;BME280;58373;51.824;5.564;2022-07-10T03:30:39;102588.50;;;13.44;77.00
57990;BME280;58373;51.824;5.564;2022-07-10T03:33:04;102589.91;;;13.35;77.51
57990;BME280;58373;51.824;5.564;2022-07-10T03:35:30;102596.72;;;13.38;76.87
57990;BME280;58373;51.824;5.564;2022-07-10T03:37:56;102612.34;;;13.38;77.89
57990;BME280;58373;51.824;5.564;2022-07-10T03:40:22;102607.28;;;13.49;77.36
57990;BME280;58373;51.824;5.564;2022-07-10T03:42:47;102594.81;;;13.40;77.51
57990;BME280;58373;51.824;5.564;2022-07-10T03:45:13;102610.81;;;13.48;77.39
57990;BME280;58373;51.824;5.564;2022-07-10T03:47:38;102607.88;;;13.52;77.49
57990;BME280;58373;51.824;5.564;2022-07-10T03:50:04;102593.06;;;13.53;77.26
57990;BME280;58373;51.824;5.564;2022-07-10T03:52:30;102586.59;;;13.46;77.28
57990;BME280;58373;51.824;5.564;2022-07-10T03:54:56;102584.13;;;13.57;77.44
57990;BME280;58373;51.824;5.564;2022-07-10T03:57:21;102565.16;;;13.55;77.11
57990;BME280;58373;51.824;5.564;2022-07-10T04:00:05;102575.88;;;13.50;77.41
57990;BME280;58373;51.824;5.564;2022-07-10T04:02:31;102583.81;;;13.62;77.45
57990;BME280;58373;51.824;5.564;2022-07-10T04:04:56;102574.09;;;13.51;78.00
57990;BME280;58373;51.824;5.564;2022-07-10T04:07:22;102561.28;;;13.48;77.81
57990;BME280;58373;51.824;5.564;2022-07-10T04:09:47;102543.66;;;13.39;77.94
57990;BME280;58373;51.824;5.564;2022-07-10T04:12:12;102554.91;;;13.52;77.91
57990;BME280;58373;51.824;5.564;2022-07-10T04:14:38;102558.03;;;13.44;78.20
57990;BME280;58373;51.824;5.564;2022-07-10T04:17:03;102558.03;;;13.44;78.37
57990;BME280;58373;51.824;5.564;2022-07-10T04:19:29;102564.72;;;13.48;78.58
57990;BME280;58373;51.824;5.564;2022-07-10T04:21:54;102567.22;;;13.50;79.29
57990;BME280;58373;51.824;5.564;2022-07-10T04:24:19;102529.88;;;13.37;78.63
57990;BME280;58373;51.824;5.564;2022-07-10T04:26:45;102570.16;;;13.58;78.16
57990;BME280;58373;51.824;5.564;2022-07-10T04:29:10;102581.53;;;13.57;78.39
57990;BME280;58373;51.824;5.564;2022-07-10T04:31:36;102584.97;;;13.70;78.23
57990;BME280;58373;51.824;5.564;2022-07-10T04:34:01;102584.06;;;13.71;77.99
57990;BME280;58373;51.824;5.564;2022-07-10T04:36:28;102577.91;;;13.72;78.30
57990;BME280;58373;51.824;5.564;2022-07-10T04:38:53;102580.69;;;13.69;78.42
57990;BME280;58373;51.824;5.564;2022-07-10T04:41:18;102578.84;;;13.71;78.52
57990;BME280;58373;51.824;5.564;2022-07-10T04:43:44;102591.47;;;13.77;78.22
57990;BME280;58373;51.824;5.564;2022-07-10T04:46:10;102592.72;;;13.85;77.77
57990;BME280;58373;51.824;5.564;2022-07-10T04:48:35;102596.06;;;13.87;78.12
57990;BME280;58373;51.824;5.564;2022-07-10T04:51:01;102585.84;;;13.84;77.66
57990;BME280;58373;51.824;5.564;2022-07-10T04:53:26;102589.28;;;13.97;77.15
57990;BME280;58373;51.824;5.564;2022-07-10T04:55:51;102572.06;;;13.81;77.53
57990;BME280;58373;51.824;5.564;2022-07-10T04:58:17;102581.47;;;13.97;77.96
57990;BME280;58373;51.824;5.564;2022-07-10T05:00:42;102578.13;;;13.95;77.66
57990;BME280;58373;51.824;5.564;2022-07-10T05:03:07;102579.38;;;14.02;77.60
57990;BME280;58373;51.824;5.564;2022-07-10T05:05:33;102581.47;;;13.97;77.27
57990;BME280;58373;51.824;5.564;2022-07-10T05:07:58;102558.69;;;13.86;76.96
57990;BME280;58373;51.824;5.564;2022-07-10T05:10:24;102591.28;;;14.06;77.02
57990;BME280;58373;51.824;5.564;2022-07-10T05:12:50;102581.88;;;13.91;77.30
57990;BME280;58373;51.824;5.564;2022-07-10T05:15:15;102592.50;;;13.88;77.45
57990;BME280;58373;51.824;5.564;2022-07-10T05:17:40;102604.00;;;13.98;76.70
57990;BME280;58373;51.824;5.564;2022-07-10T05:20:06;102595.66;;;14.05;76.33
57990;BME280;58373;51.824;5.564;2022-07-10T05:22:32;102578.97;;;13.95;76.47
57990;BME280;58373;51.824;5.564;2022-07-10T05:24:57;102573.31;;;13.89;76.72
57990;BME280;58373;51.824;5.564;2022-07-10T05:27:22;102594.31;;;14.00;77.03
57990;BME280;58373;51.824;5.564;2022-07-10T05:29:48;102610.25;;;14.08;76.82
57990;BME280;58373;51.824;5.564;2022-07-10T05:32:14;102599.41;;;14.14;76.48
57990;BME280;58373;51.824;5.564;2022-07-10T05:34:40;102590.63;;;14.15;76.46
57990;BME280;58373;51.824;5.564;2022-07-10T05:37:05;102604.00;;;14.23;76.60
57990;BME280;58373;51.824;5.564;2022-07-10T05:39:32;102587.19;;;14.15;76.32
57990;BME280;58373;51.824;5.564;2022-07-10T05:41:57;102586.47;;;14.25;76.70
57990;BME280;58373;51.824;5.564;2022-07-10T05:44:23;102579.56;;;14.24;76.26
57990;BME280;58373;51.824;5.564;2022-07-10T05:46:49;102603.03;;;14.37;75.43
57990;BME280;58373;51.824;5.564;2022-07-10T05:49:14;102598.16;;;14.45;75.47
57990;BME280;58373;51.824;5.564;2022-07-10T05:51:39;102573.09;;;14.30;75.09
57990;BME280;58373;51.824;5.564;2022-07-10T05:54:05;102600.25;;;14.53;75.42
57990;BME280;58373;51.824;5.564;2022-07-10T05:56:30;102591.88;;;14.48;74.36
57990;BME280;58373;51.824;5.564;2022-07-10T05:58:56;102608.59;;;14.58;75.05
57990;BME280;58373;51.824;5.564;2022-07-10T06:01:22;102559.72;;;14.34;74.97
57990;BME280;58373;51.824;5.564;2022-07-10T06:03:48;102586.63;;;14.60;75.02
57990;BME280;58373;51.824;5.564;2022-07-10T06:06:14;102600.59;;;14.72;74.91
57990;BME280;58373;51.824;5.564;2022-07-10T06:08:41;102558.91;;;14.47;74.17
57990;BME280;58373;51.824;5.564;2022-07-10T06:11:06;102555.13;;;14.51;74.49
57990;BME280;58373;51.824;5.564;2022-07-10T06:13:31;102553.00;;;14.56;74.51
57990;BME280;58373;51.824;5.564;2022-07-10T06:15:57;102577.41;;;14.80;74.68
57990;BME280;58373;51.824;5.564;2022-07-10T06:18:22;102560.53;;;14.60;74.42
57990;BME280;58373;51.824;5.564;2022-07-10T06:20:47;102594.50;;;14.84;74.59
57990;BME280;58373;51.824;5.564;2022-07-10T06:23:13;102594.28;;;14.87;74.91
57990;BME280;58373;51.824;5.564;2022-07-10T06:25:38;102569.06;;;14.75;74.89
57990;BME280;58373;51.824;5.564;2022-07-10T06:28:04;102585.75;;;14.85;76.00
57990;BME280;58373;51.824;5.564;2022-07-10T06:30:29;102591.31;;;15.05;75.08
57990;BME280;58373;51.824;5.564;2022-07-10T06:32:55;102597.97;;;15.09;74.88
57990;BME280;58373;51.824;5.564;2022-07-10T06:35:20;102594.41;;;15.10;74.67
57990;BME280;58373;51.824;5.564;2022-07-10T06:37:46;102602.53;;;15.18;73.63
57990;BME280;58373;51.824;5.564;2022-07-10T06:40:12;102597.53;;;15.15;73.28
57990;BME280;58373;51.824;5.564;2022-07-10T06:42:39;102590.03;;;15.10;73.32
57990;BME280;58373;51.824;5.564;2022-07-10T06:45:05;102603.25;;;15.20;73.21
57990;BME280;58373;51.824;5.564;2022-07-10T06:47:30;102590.19;;;15.20;73.60
57990;BME280;58373;51.824;5.564;2022-07-10T06:50:15;102582.69;;;15.16;72.93
57990;BME280;58373;51.824;5.564;2022-07-10T06:52:40;102596.41;;;15.30;73.11
57990;BME280;58373;51.824;5.564;2022-07-10T06:55:06;102585.94;;;15.30;74.05
57990;BME280;58373;51.824;5.564;2022-07-10T06:57:32;102594.28;;;15.35;74.03
57990;BME280;58373;51.824;5.564;2022-07-10T06:59:57;102595.94;;;15.36;73.55
57990;BME280;58373;51.824;5.564;2022-07-10T07:02:23;102576.75;;;15.25;73.66
57990;BME280;58373;51.824;5.564;2022-07-10T07:04:49;102590.94;;;15.33;73.41
57990;BME280;58373;51.824;5.564;2022-07-10T07:07:15;102588.84;;;15.38;74.02
57990;BME280;58373;51.824;5.564;2022-07-10T07:09:41;102588.84;;;15.38;73.82
57990;BME280;58373;51.824;5.564;2022-07-10T07:12:07;102574.97;;;15.25;73.29
57990;BME280;58373;51.824;5.564;2022-07-10T07:14:34;102592.16;;;15.40;73.59
57990;BME280;58373;51.824;5.564;2022-07-10T07:16:59;102572.53;;;15.35;74.08
57990;BME280;58373;51.824;5.564;2022-07-10T07:19:32;102585.81;;;15.56;74.04
57990;BME280;58373;51.824;5.564;2022-07-10T07:22:22;102577.91;;;15.45;72.17
57990;BME280;58373;51.824;5.564;2022-07-10T07:25:08;102593.63;;;15.45;73.01
57990;BME280;58373;51.824;5.564;2022-07-10T07:27:35;102581.56;;;15.42;73.50
57990;BME280;58373;51.824;5.564;2022-07-10T07:30:05;102605.91;;;15.55;73.38
57990;BME280;58373;51.824;5.564;2022-07-10T07:32:31;102594.34;;;15.58;73.75
57990;BME280;58373;51.824;5.564;2022-07-10T07:34:58;102607.97;;;15.63;74.43
57990;BME280;58373;51.824;5.564;2022-07-10T07:37:40;102597.72;;;15.60;73.78
57990;BME280;58373;51.824;5.564;2022-07-10T07:40:11;102598.94;;;15.67;73.34
57990;BME280;58373;51.824;5.564;2022-07-10T07:42:37;102600.00;;;15.64;73.76
57990;BME280;58373;51.824;5.564;2022-07-10T07:45:03;102606.06;;;15.65;72.70
57990;BME280;58373;51.824;5.564;2022-07-10T07:47:30;102601.69;;;15.65;73.51
57990;BME280;58373;51.824;5.564;2022-07-10T07:49:56;102590.56;;;15.62;73.13
57990;BME280;58373;51.824;5.564;2022-07-10T07:52:22;102607.75;;;15.66;72.95
57990;BME280;58373;51.824;5.564;2022-07-10T07:54:49;102605.59;;;15.71;73.23
57990;BME280;58373;51.824;5.564;2022-07-10T07:57:14;102600.34;;;15.71;73.28
57990;BME280;58373;51.824;5.564;2022-07-10T07:59:39;102591.59;;;15.72;73.80
57990;BME280;58373;51.824;5.564;2022-07-10T08:02:05;102602.78;;;15.85;73.71
57990;BME280;58373;51.824;5.564;2022-07-10T08:04:31;102586.72;;;15.79;73.39
57990;BME280;58373;51.824;5.564;2022-07-10T08:06:57;102598.63;;;15.83;74.12
57990;BME280;58373;51.824;5.564;2022-07-10T08:09:22;102603.50;;;15.87;73.96
57990;BME280;58373;51.824;5.564;2022-07-10T08:11:48;102598.53;;;15.96;74.07
57990;BME280;58373;51.824;5.564;2022-07-10T08:14:13;102589.09;;;15.93;73.92
57990;BME280;58373;51.824;5.564;2022-07-10T08:16:40;102597.34;;;16.11;73.05
57990;BME280;58373;51.824;5.564;2022-07-10T08:19:05;102589.25;;;16.03;72.60
57990;BME280;58373;51.824;5.564;2022-07-10T08:21:31;102599.25;;;16.09;73.33
57990;BME280;58373;51.824;5.564;2022-07-10T08:23:57;102606.13;;;16.10;71.86
57990;BME280;58373;51.824;5.564;2022-07-10T08:26:24;102590.44;;;16.10;72.50
57990;BME280;58373;51.824;5.564;2022-07-10T08:28:49;102594.72;;;16.11;72.42
57990;BME280;58373;51.824;5.564;2022-07-10T08:31:14;102597.22;;;16.01;72.34
57990;BME280;58373;51.824;5.564;2022-07-10T08:33:40;102599.72;;;16.03;72.59
57990;BME280;58373;51.824;5.564;2022-07-10T08:36:06;102599.25;;;16.09;72.88
57990;BME280;58373;51.824;5.564;2022-07-10T08:38:31;102600.91;;;16.10;72.35
57990;BME280;58373;51.824;5.564;2022-07-10T08:40:57;102602.34;;;16.14;73.48
57990;BME280;58373;51.824;5.564;2022-07-10T08:43:24;102601.38;;;16.15;73.03
57990;BME280;58373;51.824;5.564;2022-07-10T08:45:50;102595.66;;;15.99;72.57
57990;BME280;58373;51.824;5.564;2022-07-10T08:48:20;102614.94;;;16.09;72.60
57990;BME280;58373;51.824;5.564;2022-07-10T08:50:47;102594.13;;;15.96;73.14
57990;BME280;58373;51.824;5.564;2022-07-10T08:53:18;102590.22;;;16.02;72.48
57990;BME280;58373;51.824;5.564;2022-07-10T08:55:48;102618.88;;;16.14;72.84
57990;BME280;58373;51.824;5.564;2022-07-10T08:58:14;102599.50;;;16.06;72.13
57990;BME280;58373;51.824;5.564;2022-07-10T09:00:40;102604.94;;;16.03;71.77
57990;BME280;58373;51.824;5.564;2022-07-10T09:03:07;102611.84;;;16.04;72.72
57990;BME280;58373;51.824;5.564;2022-07-10T09:05:33;102596.41;;;16.01;72.99
57990;BME280;58373;51.824;5.564;2022-07-10T09:07:58;102597.59;;;16.08;72.45
57990;BME280;58373;51.824;5.564;2022-07-10T09:10:26;102585.69;;;16.04;72.58
57990;BME280;58373;51.824;5.564;2022-07-10T09:12:52;102593.31;;;16.18;72.80
57990;BME280;58373;51.824;5.564;2022-07-10T09:15:20;102584.03;;;16.25;73.00
57990;BME280;58373;51.824;5.564;2022-07-10T09:17:58;102596.63;;;16.42;72.10
57990;BME280;58373;51.824;5.564;2022-07-10T09:20:31;102589.94;;;16.61;72.88
57990;BME280;58373;51.824;5.564;2022-07-10T09:23:12;102594.47;;;16.70;71.84
57990;BME280;58373;51.824;5.564;2022-07-10T09:25:40;102573.03;;;16.65;71.35
57990;BME280;58373;51.824;5.564;2022-07-10T09:28:05;102579.69;;;16.80;70.56
57990;BME280;58373;51.824;5.564;2022-07-10T09:30:38;102578.72;;;16.92;71.08
57990;BME280;58373;51.824;5.564;2022-07-10T09:33:24;102582.38;;;17.01;71.24
57990;BME280;58373;51.824;5.564;2022-07-10T09:36:17;102576.63;;;17.07;71.28
57990;BME280;58373;51.824;5.564;2022-07-10T09:43:51;102576.34;;;17.42;69.88
57990;BME280;58373;51.824;5.564;2022-07-10T09:46:19;102569.72;;;17.38;69.21
57990;BME280;58373;51.824;5.564;2022-07-10T09:48:45;102565.16;;;17.40;68.45
57990;BME280;58373;51.824;5.564;2022-07-10T09:51:11;102569.81;;;17.37;68.66
57990;BME280;58373;51.824;5.564;2022-07-10T09:53:41;102575.41;;;17.43;68.21
57990;BME280;58373;51.824;5.564;2022-07-10T09:56:09;102571.69;;;17.46;67.37
57990;BME280;58373;51.824;5.564;2022-07-10T09:58:35;102553.72;;;17.41;67.82
57990;BME280;58373;51.824;5.564;2022-07-10T10:01:08;102569.16;;;17.56;67.20
57990;BME280;58373;51.824;5.564;2022-07-10T10:03:37;102569.97;;;17.77;68.57
57990;BME280;58373;51.824;5.564;2022-07-10T10:08:43;102558.47;;;17.89;67.03
57990;BME280;58373;51.824;5.564;2022-07-10T10:11:14;102561.25;;;17.97;66.99
57990;BME280;58373;51.824;5.564;2022-07-10T10:13:41;102563.50;;;18.12;66.77
57990;BME280;58373;51.824;5.564;2022-07-10T10:16:08;102561.94;;;17.99;66.30
57990;BME280;58373;51.824;5.564;2022-07-10T10:18:36;102557.94;;;17.95;64.66
57990;BME280;58373;51.824;5.564;2022-07-10T10:21:02;102572.34;;;18.11;65.75
57990;BME280;58373;51.824;5.564;2022-07-10T10:23:32;102556.88;;;18.08;65.24
57990;BME280;58373;51.824;5.564;2022-07-10T10:25:58;102563.56;;;18.21;66.85
57990;BME280;58373;51.824;5.564;2022-07-10T10:28:24;102562.63;;;18.32;65.11
57990;BME280;58373;51.824;5.564;2022-07-10T10:31:00;102555.44;;;18.34;64.96
57990;BME280;58373;51.824;5.564;2022-07-10T10:35:58;102554.22;;;18.38;64.11
57990;BME280;58373;51.824;5.564;2022-07-10T10:38:23;102546.47;;;18.46;63.31
57990;BME280;58373;51.824;5.564;2022-07-10T10:40:49;102533.19;;;18.38;63.40
57990;BME280;58373;51.824;5.564;2022-07-10T10:43:20;102559.25;;;18.61;63.71
57990;BME280;58373;51.824;5.564;2022-07-10T10:45:50;102551.53;;;18.69;63.85
57990;BME280;58373;51.824;5.564;2022-07-10T10:48:17;102545.47;;;18.78;64.14
57990;BME280;58373;51.824;5.564;2022-07-10T10:50:47;102541.72;;;18.71;63.81
57990;BME280;58373;51.824;5.564;2022-07-10T10:53:18;102542.00;;;18.77;64.64
57990;BME280;58373;51.824;5.564;2022-07-10T11:06:53;102537.31;;;18.81;64.68
57990;BME280;58373;51.824;5.564;2022-07-10T11:09:25;102547.41;;;18.95;64.57
57990;BME280;58373;51.824;5.564;2022-07-10T11:12:04;102548.25;;;19.05;64.56
57990;BME280;58373;51.824;5.564;2022-07-10T11:14:31;102540.75;;;18.91;62.75
57990;BME280;58373;51.824;5.564;2022-07-10T11:16:57;102541.31;;;18.85;63.30
57990;BME280;58373;51.824;5.564;2022-07-10T11:19:25;102540.06;;;19.08;65.46
57990;BME280;58373;51.824;5.564;2022-07-10T11:21:58;102536.63;;;19.08;64.51
57990;BME280;58373;51.824;5.564;2022-07-10T11:24:58;102535.78;;;19.17;64.07
57990;BME280;58373;51.824;5.564;2022-07-10T11:30:07;102545.50;;;19.17;63.74
57990;BME280;58373;51.824;5.564;2022-07-10T11:32:33;102536.19;;;19.03;63.84
57990;BME280;58373;51.824;5.564;2022-07-10T11:34:59;102536.63;;;19.18;65.15
57990;BME280;58373;51.824;5.564;2022-07-10T11:37:25;102545.91;;;19.12;63.41
57990;BME280;58373;51.824;5.564;2022-07-10T11:40:11;102544.50;;;19.18;63.27
57990;BME280;58373;51.824;5.564;2022-07-10T11:45:30;102532.59;;;19.14;63.67
57990;BME280;58373;51.824;5.564;2022-07-10T11:47:56;102534.13;;;19.06;63.06
57990;BME280;58373;51.824;5.564;2022-07-10T11:50:22;102538.00;;;19.02;63.88
57990;BME280;58373;51.824;5.564;2022-07-10T11:52:48;102534.13;;;18.97;63.79
57990;BME280;58373;51.824;5.564;2022-07-10T11:55:16;102530.53;;;18.88;62.98
57990;BME280;58373;51.824;5.564;2022-07-10T11:57:41;102514.50;;;18.81;63.25
57990;BME280;58373;51.824;5.564;2022-07-10T12:02:46;102527.47;;;19.02;62.51
57990;BME280;58373;51.824;5.564;2022-07-10T12:05:38;102511.28;;;18.97;63.57
57990;BME280;58373;51.824;5.564;2022-07-10T12:08:04;102527.06;;;19.07;63.05
57990;BME280;58373;51.824;5.564;2022-07-10T12:10:32;102532.03;;;19.20;63.20
57990;BME280;58373;51.824;5.564;2022-07-10T12:13:05;102517.78;;;19.13;63.20
57990;BME280;58373;51.824;5.564;2022-07-10T12:17:59;102518.06;;;19.29;61.95
57990;BME280;58373;51.824;5.564;2022-07-10T12:20:25;102524.13;;;19.39;62.01
57990;BME280;58373;51.824;5.564;2022-07-10T12:22:52;102521.91;;;19.44;61.33
57990;BME280;58373;51.824;5.564;2022-07-10T12:25:20;102513.81;;;19.55;62.79
57990;BME280;58373;51.824;5.564;2022-07-10T12:27:45;102501.63;;;19.74;62.87
57990;BME280;58373;51.824;5.564;2022-07-10T12:30:11;102518.78;;;19.78;61.41
57990;BME280;58373;51.824;5.564;2022-07-10T12:32:36;102527.16;;;19.63;58.74
57990;BME280;58373;51.824;5.564;2022-07-10T12:35:02;102515.38;;;19.68;61.12
57990;BME280;58373;51.824;5.564;2022-07-10T12:37:28;102507.47;;;19.58;60.40
57990;BME280;58373;51.824;5.564;2022-07-10T12:39:53;102526.31;;;19.73;59.81
57990;BME280;58373;51.824;5.564;2022-07-10T12:42:31;102514.63;;;19.75;59.52
57990;BME280;58373;51.824;5.564;2022-07-10T12:45:13;102509.94;;;19.79;59.77
57990;BME280;58373;51.824;5.564;2022-07-10T12:47:48;102510.28;;;19.84;60.10
57990;BME280;58373;51.824;5.564;2022-07-10T12:50:15;102510.75;;;19.79;60.23
57990;BME280;58373;51.824;5.564;2022-07-10T12:52:44;102528.22;;;19.71;59.25
57990;BME280;58373;51.824;5.564;2022-07-10T12:55:16;102521.03;;;19.73;59.68
57990;BME280;58373;51.824;5.564;2022-07-10T12:57:54;102520.72;;;19.76;59.70
57990;BME280;58373;51.824;5.564;2022-07-10T13:00:22;102524.03;;;19.78;58.83
57990;BME280;58373;51.824;5.564;2022-07-10T13:02:49;102515.13;;;19.88;59.12
57990;BME280;58373;51.824;5.564;2022-07-10T13:05:34;102519.56;;;19.88;58.71
57990;BME280;58373;51.824;5.564;2022-07-10T13:08:14;102512.66;;;19.87;58.88
57990;BME280;58373;51.824;5.564;2022-07-10T13:10:43;102516.16;;;20.05;59.11
57990;BME280;58373;51.824;5.564;2022-07-10T13:13:09;102511.22;;;20.02;58.65
57990;BME280;58373;51.824;5.564;2022-07-10T13:15:34;102510.22;;;20.03;59.19
57990;BME280;58373;51.824;5.564;2022-07-10T13:18:06;102511.69;;;20.15;58.65
57990;BME280;58373;51.824;5.564;2022-07-10T13:20:31;102505.63;;;20.05;57.87
57990;BME280;58373;51.824;5.564;2022-07-10T13:22:57;102511.97;;;20.12;58.97